Hovedside
METAR-TAF:

METAR-TAF

Lufthavner :

Rivas, Nicaragua

breddegrad: 11-25N, lengdegrad: 085-50W, høyde over havet: 53 m

Gjeldene værobservasjon

Denne rapporten ble laget for 10 timer og 59 minutter siden, klokken 23:00 UTC
Vind 4 kt fra Øst
Temperatur 29°C
Luftfuktighet 66%
Trykk 1012 hPa
Sikt 10 km eller mer
ingen skyer under 1500 m og ingen bygeskyer

METAR: MNRS 252300Z 10004KT CAVOK 29/22 Q1012

Tid: 03:59 (09:59 UTC)


TAF: fraværende

Værobservasjoner og værvarsel for over 4000 flyplasser (METAR- og TAF-rapporter).

Tilgjengelige stasjoner er representert av de røde og gule prikkene på kartet.

Hold musepekeren over prikken for å se navnet på stasjonen.

Klikk så for å se værobservasjoner og -varsler.

For å forandre kartet kan du klikke på den grønne knappen med svart kryss for å zoome inn, på den grønne knappen med strek for å zoome ut, eller på de grønne pilene for å se tilstøtende kart.


METAR-TAF: